createdAt,value
2022-09-05T00:09:24.233Z,1015.67
2022-09-05T00:24:42.693Z,1015.68
2022-09-05T00:39:24.410Z,1015.63
2022-09-05T00:54:26.423Z,1015.56
2022-09-05T01:09:24.400Z,1015.59
2022-09-05T01:24:27.821Z,1015.75
2022-09-05T01:40:14.493Z,1015.70
2022-09-05T01:54:27.509Z,1015.64
2022-09-05T02:09:24.561Z,1015.64
2022-09-05T02:24:24.514Z,1015.68
2022-09-05T02:45:03.415Z,1015.76
2022-09-05T02:57:36.373Z,1015.80
2022-09-05T03:09:24.646Z,1015.82
2022-09-05T03:24:24.685Z,1015.62
2022-09-05T03:39:24.842Z,1015.67
2022-09-05T03:57:18.179Z,1015.77
2022-09-05T04:09:43.485Z,1015.82
2022-09-05T04:24:24.794Z,1015.86
2022-09-05T04:39:24.921Z,1015.91
2022-09-05T04:54:26.011Z,1015.93
2022-09-05T05:09:24.889Z,1016.12
2022-09-05T05:24:24.921Z,1016.11
2022-09-05T05:39:25.018Z,1016.18
2022-09-05T05:54:24.993Z,1016.19
2022-09-05T06:14:48.387Z,1016.24
2022-09-05T06:24:25.083Z,1016.24
2022-09-05T06:39:25.202Z,1016.34
2022-09-05T06:54:25.141Z,1016.27
2022-09-05T07:09:28.470Z,1016.23
2022-09-05T07:24:53.742Z,1016.35
2022-09-05T07:39:29.030Z,1016.43
2022-09-05T07:57:13.027Z,1016.50
2022-09-05T08:10:10.168Z,1016.45
2022-09-05T08:24:25.499Z,1016.40
2022-09-05T08:39:25.497Z,1016.36
2022-09-05T08:54:25.522Z,1016.10
2022-09-05T09:09:25.312Z,1016.02
2022-09-05T09:24:25.587Z,1016.00
2022-09-05T09:39:37.347Z,1015.91
2022-09-05T09:54:25.619Z,1015.94
2022-09-05T10:10:51.125Z,1015.76
2022-09-05T10:24:25.692Z,1015.68
2022-09-05T10:39:25.943Z,1015.59
2022-09-05T10:54:25.848Z,1015.42
2022-09-05T11:09:25.841Z,1015.23
2022-09-05T11:24:27.573Z,1015.12
2022-09-05T11:39:56.621Z,1015.13
2022-09-05T11:54:25.995Z,1015.20
2022-09-05T12:09:25.981Z,1015.09
2022-09-05T12:41:32.746Z,1014.86
2022-09-05T12:41:41.567Z,1014.98
2022-09-05T12:54:34.060Z,1014.86
2022-09-05T13:09:47.827Z,1014.77
2022-09-05T13:24:26.257Z,1014.56
2022-09-05T13:39:26.366Z,1014.53
2022-09-05T13:54:26.367Z,1014.19
2022-09-05T14:09:39.396Z,1014.12
2022-09-05T14:24:28.038Z,1013.99
2022-09-05T14:39:26.550Z,1014.06
2022-09-05T15:12:16.351Z,1013.70
2022-09-05T15:24:26.573Z,1013.64
2022-09-05T15:39:26.631Z,1013.54
2022-09-05T15:54:30.701Z,1013.53
2022-09-05T16:10:44.906Z,1013.43
2022-09-05T16:24:58.509Z,1013.39
2022-09-05T16:39:26.797Z,1013.31
2022-09-05T16:54:26.992Z,1013.07
2022-09-05T17:09:26.756Z,1012.96
2022-09-05T17:29:25.035Z,1012.82
2022-09-05T17:39:33.003Z,1012.79
2022-09-05T17:54:26.909Z,1012.79
2022-09-05T18:09:26.949Z,1012.82
2022-09-05T18:24:32.611Z,1012.94
2022-09-05T18:39:27.294Z,1012.98
2022-09-05T18:54:27.202Z,1013.00
2022-09-05T19:09:27.218Z,1013.05
2022-09-05T19:24:34.446Z,1012.88
2022-09-05T19:41:57.271Z,1012.90
2022-09-05T19:54:27.179Z,1012.72
2022-09-05T20:09:27.118Z,1012.53
2022-09-05T20:24:27.233Z,1012.55
2022-09-05T20:43:28.125Z,1012.56
2022-09-05T20:54:34.726Z,1012.52
2022-09-05T21:09:27.509Z,1012.48
2022-09-05T21:24:27.418Z,1012.33
2022-09-05T21:39:27.501Z,1012.25
2022-09-05T21:59:15.200Z,1012.11
2022-09-05T22:09:27.566Z,1012.04
2022-09-05T22:24:27.689Z,1011.82
2022-09-05T22:39:36.587Z,1011.78
2022-09-05T22:54:27.655Z,1011.91
2022-09-05T23:09:27.751Z,1012.05
2022-09-05T23:24:27.662Z,1011.91
2022-09-05T23:39:27.933Z,1011.72
2022-09-05T23:54:27.782Z,1011.72
